sensor_id;sensor_type;location;lat;lon;timestamp;pressure;altitude;pressure_sealevel;temperature;humidity
49342;BME280;35210;41.606;-87.602;2023-06-14T00:02:26;98129.38;;;19.19;100.00
49342;BME280;35210;41.606;-87.602;2023-06-14T00:04:54;98119.28;;;19.21;100.00
49342;BME280;35210;41.606;-87.602;2023-06-14T00:07:34;98114.97;;;19.20;100.00
49342;BME280;35210;41.606;-87.602;2023-06-14T00:10:04;98114.53;;;19.23;100.00
49342;BME280;35210;41.606;-87.602;2023-06-14T00:12:33;98096.44;;;19.25;100.00
49342;BME280;35210;41.606;-87.602;2023-06-14T00:15:01;98101.78;;;19.25;100.00
49342;BME280;35210;41.606;-87.602;2023-06-14T00:17:29;98085.72;;;19.25;100.00
49342;BME280;35210;41.606;-87.602;2023-06-14T00:19:58;98091.91;;;19.25;100.00
49342;BME280;35210;41.606;-87.602;2023-06-14T00:22:26;98098.50;;;19.23;100.00
49342;BME280;35210;41.606;-87.602;2023-06-14T00:24:57;98086.34;;;19.27;100.00
49342;BME280;35210;41.606;-87.602;2023-06-14T00:27:26;98089.03;;;19.27;100.00
49342;BME280;35210;41.606;-87.602;2023-06-14T00:29:54;98084.69;;;19.26;100.00
49342;BME280;35210;41.606;-87.602;2023-06-14T00:32:23;98079.13;;;19.27;100.00
49342;BME280;35210;41.606;-87.602;2023-06-14T00:34:52;98077.91;;;19.30;100.00
49342;BME280;35210;41.606;-87.602;2023-06-14T00:37:20;98065.53;;;19.35;100.00
49342;BME280;35210;41.606;-87.602;2023-06-14T00:39:48;98061.41;;;19.33;100.00
49342;BME280;35210;41.606;-87.602;2023-06-14T00:42:24;98065.94;;;19.32;100.00
49342;BME280;35210;41.606;-87.602;2023-06-14T00:44:54;98066.34;;;19.36;100.00
49342;BME280;35210;41.606;-87.602;2023-06-14T00:47:22;98144.81;;;19.56;100.00
49342;BME280;35210;41.606;-87.602;2023-06-14T00:49:51;98163.16;;;19.59;100.00
49342;BME280;35210;41.606;-87.602;2023-06-14T00:52:20;98166.88;;;19.52;100.00
49342;BME280;35210;41.606;-87.602;2023-06-14T00:54:50;98173.81;;;19.40;100.00
49342;BME280;35210;41.606;-87.602;2023-06-14T00:57:18;98152.41;;;19.33;100.00
49342;BME280;35210;41.606;-87.602;2023-06-14T00:59:48;98160.25;;;19.21;100.00
49342;BME280;35210;41.606;-87.602;2023-06-14T01:02:18;98155.28;;;19.12;100.00
49342;BME280;35210;41.606;-87.602;2023-06-14T01:04:47;98148.69;;;19.14;100.00
49342;BME280;35210;41.606;-87.602;2023-06-14T01:07:25;98149.31;;;19.10;100.00
49342;BME280;35210;41.606;-87.602;2023-06-14T01:10:08;98154.66;;;19.10;100.00
49342;BME280;35210;41.606;-87.602;2023-06-14T01:12:47;98148.69;;;19.08;100.00
49342;BME280;35210;41.606;-87.602;2023-06-14T01:15:17;98152.81;;;19.03;100.00
49342;BME280;35210;41.606;-87.602;2023-06-14T01:17:49;98152.78;;;18.90;100.00
49342;BME280;35210;41.606;-87.602;2023-06-14T01:20:20;98156.25;;;18.84;100.00
49342;BME280;35210;41.606;-87.602;2023-06-14T01:22:53;98160.16;;;18.82;100.00
49342;BME280;35210;41.606;-87.602;2023-06-14T01:25:22;98177.88;;;18.89;100.00
49342;BME280;35210;41.606;-87.602;2023-06-14T01:27:52;98172.28;;;18.84;100.00
49342;BME280;35210;41.606;-87.602;2023-06-14T01:30:21;98179.88;;;18.74;100.00
49342;BME280;35210;41.606;-87.602;2023-06-14T01:32:52;98183.78;;;18.78;100.00
49342;BME280;35210;41.606;-87.602;2023-06-14T01:35:22;98186.25;;;18.73;100.00
49342;BME280;35210;41.606;-87.602;2023-06-14T01:37:54;98193.22;;;18.67;100.00
49342;BME280;35210;41.606;-87.602;2023-06-14T01:40:23;98195.47;;;18.64;100.00
49342;BME280;35210;41.606;-87.602;2023-06-14T01:42:52;98201.84;;;18.63;100.00
49342;BME280;35210;41.606;-87.602;2023-06-14T01:45:22;98196.91;;;18.66;100.00
49342;BME280;35210;41.606;-87.602;2023-06-14T01:47:50;98196.22;;;18.58;100.00
49342;BME280;35210;41.606;-87.602;2023-06-14T01:50:20;98197.88;;;18.59;100.00
49342;BME280;35210;41.606;-87.602;2023-06-14T01:52:48;98203.88;;;18.61;100.00
49342;BME280;35210;41.606;-87.602;2023-06-14T01:55:19;98205.31;;;18.57;100.00
49342;BME280;35210;41.606;-87.602;2023-06-14T01:57:48;98209.00;;;18.56;100.00
49342;BME280;35210;41.606;-87.602;2023-06-14T02:00:17;98210.81;;;18.49;100.00
49342;BME280;35210;41.606;-87.602;2023-06-14T02:02:46;98213.69;;;18.47;100.00
49342;BME280;35210;41.606;-87.602;2023-06-14T02:05:18;98215.72;;;18.45;100.00
49342;BME280;35210;41.606;-87.602;2023-06-14T02:07:48;98216.56;;;18.46;100.00
49342;BME280;35210;41.606;-87.602;2023-06-14T02:10:41;98225.19;;;18.48;100.00
49342;BME280;35210;41.606;-87.602;2023-06-14T02:13:10;98228.66;;;18.42;100.00
49342;BME280;35210;41.606;-87.602;2023-06-14T02:15:39;98224.09;;;18.35;100.00
49342;BME280;35210;41.606;-87.602;2023-06-14T02:18:10;98219.97;;;18.33;100.00
49342;BME280;35210;41.606;-87.602;2023-06-14T02:20:39;98221.19;;;18.30;100.00
49342;BME280;35210;41.606;-87.602;2023-06-14T02:23:08;98226.53;;;18.30;100.00
49342;BME280;35210;41.606;-87.602;2023-06-14T02:25:36;98220.16;;;18.31;100.00
49342;BME280;35210;41.606;-87.602;2023-06-14T02:28:08;98218.31;;;18.32;100.00
49342;BME280;35210;41.606;-87.602;2023-06-14T02:30:36;98237.28;;;18.37;100.00
49342;BME280;35210;41.606;-87.602;2023-06-14T02:33:05;98228.63;;;18.35;100.00
49342;BME280;35210;41.606;-87.602;2023-06-14T02:35:39;98241.78;;;18.36;100.00
49342;BME280;35210;41.606;-87.602;2023-06-14T02:38:07;98240.53;;;18.32;100.00
49342;BME280;35210;41.606;-87.602;2023-06-14T02:40:38;98244.22;;;18.31;100.00
49342;BME280;35210;41.606;-87.602;2023-06-14T02:43:10;98242.56;;;18.30;100.00
49342;BME280;35210;41.606;-87.602;2023-06-14T02:45:39;98248.53;;;18.32;100.00
49342;BME280;35210;41.606;-87.602;2023-06-14T02:48:08;98237.03;;;18.32;100.00
49342;BME280;35210;41.606;-87.602;2023-06-14T02:50:36;98238.28;;;18.36;100.00
49342;BME280;35210;41.606;-87.602;2023-06-14T02:53:04;98237.28;;;18.37;100.00
49342;BME280;35210;41.606;-87.602;2023-06-14T02:55:33;98234.78;;;18.35;100.00
49342;BME280;35210;41.606;-87.602;2023-06-14T02:58:05;98235.63;;;18.36;100.00
49342;BME280;35210;41.606;-87.602;2023-06-14T03:00:35;98229.44;;;18.35;100.00
49342;BME280;35210;41.606;-87.602;2023-06-14T03:03:04;98223.09;;;18.36;100.00
49342;BME280;35210;41.606;-87.602;2023-06-14T03:05:41;98218.38;;;18.38;100.00
49342;BME280;35210;41.606;-87.602;2023-06-14T03:08:12;98227.84;;;18.41;100.00
49342;BME280;35210;41.606;-87.602;2023-06-14T03:10:43;98226.63;;;18.44;100.00
49342;BME280;35210;41.606;-87.602;2023-06-14T03:13:11;98238.38;;;18.49;100.00
49342;BME280;35210;41.606;-87.602;2023-06-14T03:15:40;98234.03;;;18.48;100.00
49342;BME280;35210;41.606;-87.602;2023-06-14T03:18:11;98241.88;;;18.50;100.00
49342;BME280;35210;41.606;-87.602;2023-06-14T03:20:41;98243.13;;;18.54;100.00
49342;BME280;35210;41.606;-87.602;2023-06-14T03:23:11;98243.94;;;18.54;100.00
49342;BME280;35210;41.606;-87.602;2023-06-14T03:25:40;98235.31;;;18.59;100.00
49342;BME280;35210;41.606;-87.602;2023-06-14T03:28:08;98241.31;;;18.61;100.00
49342;BME280;35210;41.606;-87.602;2023-06-14T03:30:36;98237.41;;;18.63;100.00
49342;BME280;35210;41.606;-87.602;2023-06-14T03:33:06;98244.41;;;18.64;100.00
49342;BME280;35210;41.606;-87.602;2023-06-14T03:35:34;98235.72;;;18.56;100.00
49342;BME280;35210;41.606;-87.602;2023-06-14T03:38:02;98236.97;;;18.60;100.00
49342;BME280;35210;41.606;-87.602;2023-06-14T03:40:31;98243.13;;;18.54;100.00
49342;BME280;35210;41.606;-87.602;2023-06-14T03:42:59;98228.75;;;18.55;100.00
49342;BME280;35210;41.606;-87.602;2023-06-14T03:45:27;98227.25;;;18.46;100.00
49342;BME280;35210;41.606;-87.602;2023-06-14T03:47:55;98239.19;;;18.50;100.00
49342;BME280;35210;41.606;-87.602;2023-06-14T03:50:28;98234.88;;;18.49;100.00
49342;BME280;35210;41.606;-87.602;2023-06-14T03:52:56;98236.53;;;18.50;100.00
49342;BME280;35210;41.606;-87.602;2023-06-14T03:55:24;98231.56;;;18.47;100.00
49342;BME280;35210;41.606;-87.602;2023-06-14T03:57:53;98237.34;;;18.50;100.00
49342;BME280;35210;41.606;-87.602;2023-06-14T04:00:21;98237.78;;;18.54;100.00
49342;BME280;35210;41.606;-87.602;2023-06-14T04:02:50;98241.47;;;18.53;100.00
49342;BME280;35210;41.606;-87.602;2023-06-14T04:05:18;98236.53;;;18.50;100.00
49342;BME280;35210;41.606;-87.602;2023-06-14T04:07:48;98234.47;;;18.52;100.00
49342;BME280;35210;41.606;-87.602;2023-06-14T04:10:17;98239.00;;;18.58;100.00
49342;BME280;35210;41.606;-87.602;2023-06-14T04:12:46;98241.09;;;18.56;100.00
49342;BME280;35210;41.606;-87.602;2023-06-14T04:15:14;98242.09;;;18.55;100.00
49342;BME280;35210;41.606;-87.602;2023-06-14T04:17:42;98234.09;;;18.55;100.00
49342;BME280;35210;41.606;-87.602;2023-06-14T04:20:11;98239.63;;;18.60;100.00
49342;BME280;35210;41.606;-87.602;2023-06-14T04:22:39;98230.97;;;18.58;100.00
49342;BME280;35210;41.606;-87.602;2023-06-14T04:25:11;98227.94;;;18.61;100.00
49342;BME280;35210;41.606;-87.602;2023-06-14T04:27:39;98227.28;;;18.59;100.00
49342;BME280;35210;41.606;-87.602;2023-06-14T04:30:08;98227.94;;;18.61;100.00
49342;BME280;35210;41.606;-87.602;2023-06-14T04:32:36;98229.97;;;18.59;100.00
49342;BME280;35210;41.606;-87.602;2023-06-14T04:35:06;98230.63;;;18.61;100.00
49342;BME280;35210;41.606;-87.602;2023-06-14T04:37:34;98236.59;;;18.63;100.00
49342;BME280;35210;41.606;-87.602;2023-06-14T04:40:07;98229.59;;;18.62;100.00
49342;BME280;35210;41.606;-87.602;2023-06-14T04:42:37;98231.59;;;18.60;100.00
49342;BME280;35210;41.606;-87.602;2023-06-14T04:45:07;98231.59;;;18.60;100.00
49342;BME280;35210;41.606;-87.602;2023-06-14T04:47:36;98234.13;;;18.61;100.00
49342;BME280;35210;41.606;-87.602;2023-06-14T04:50:05;98244.00;;;18.61;100.00
49342;BME280;35210;41.606;-87.602;2023-06-14T04:52:33;98237.63;;;18.62;100.00
49342;BME280;35210;41.606;-87.602;2023-06-14T04:55:01;98233.91;;;18.63;100.00
49342;BME280;35210;41.606;-87.602;2023-06-14T04:57:30;98239.06;;;18.64;100.00
49342;BME280;35210;41.606;-87.602;2023-06-14T05:00:00;98234.34;;;18.66;100.00
49342;BME280;35210;41.606;-87.602;2023-06-14T05:02:30;98227.97;;;18.67;100.00
49342;BME280;35210;41.606;-87.602;2023-06-14T05:04:58;98228.81;;;18.68;100.00
49342;BME280;35210;41.606;-87.602;2023-06-14T05:07:27;98237.03;;;18.66;100.00
49342;BME280;35210;41.606;-87.602;2023-06-14T05:09:55;98237.44;;;18.70;100.00
49342;BME280;35210;41.606;-87.602;2023-06-14T05:12:24;98245.47;;;18.70;100.00
49342;BME280;35210;41.606;-87.602;2023-06-14T05:14:52;98241.56;;;18.73;100.00
49342;BME280;35210;41.606;-87.602;2023-06-14T05:17:22;98242.41;;;18.73;100.00
49342;BME280;35210;41.606;-87.602;2023-06-14T05:19:50;98237.25;;;18.71;100.00
49342;BME280;35210;41.606;-87.602;2023-06-14T05:22:18;98242.78;;;18.70;100.00
49342;BME280;35210;41.606;-87.602;2023-06-14T05:24:46;98243.81;;;18.69;100.00
49342;BME280;35210;41.606;-87.602;2023-06-14T05:27:16;98250.19;;;18.68;100.00
49342;BME280;35210;41.606;-87.602;2023-06-14T05:29:44;98250.19;;;18.68;100.00
49342;BME280;35210;41.606;-87.602;2023-06-14T05:32:12;98258.84;;;18.70;100.00
49342;BME280;35210;41.606;-87.602;2023-06-14T05:34:42;98256.78;;;18.72;100.00
49342;BME280;35210;41.606;-87.602;2023-06-14T05:37:10;98264.19;;;18.70;100.00
49342;BME280;35210;41.606;-87.602;2023-06-14T05:39:39;98267.69;;;18.70;100.00
49342;BME280;35210;41.606;-87.602;2023-06-14T05:42:07;98259.66;;;18.70;100.00
49342;BME280;35210;41.606;-87.602;2023-06-14T05:44:35;98266.66;;;18.71;100.00
49342;BME280;35210;41.606;-87.602;2023-06-14T05:47:04;98263.78;;;18.73;100.00
49342;BME280;35210;41.606;-87.602;2023-06-14T05:49:32;98265.44;;;18.74;100.00
49342;BME280;35210;41.606;-87.602;2023-06-14T05:52:02;98261.31;;;18.71;100.00
49342;BME280;35210;41.606;-87.602;2023-06-14T05:54:31;98266.66;;;18.71;100.00
49342;BME280;35210;41.606;-87.602;2023-06-14T05:56:59;98262.97;;;18.73;100.00
49342;BME280;35210;41.606;-87.602;2023-06-14T05:59:28;98261.34;;;18.78;100.00
49342;BME280;35210;41.606;-87.602;2023-06-14T06:01:56;98261.75;;;18.75;100.00
49342;BME280;35210;41.606;-87.602;2023-06-14T06:04:24;98263.78;;;18.73;100.00
49342;BME280;35210;41.606;-87.602;2023-06-14T06:06:52;98249.78;;;18.71;100.00
49342;BME280;35210;41.606;-87.602;2023-06-14T06:09:22;98256.16;;;18.70;100.00
49342;BME280;35210;41.606;-87.602;2023-06-14T06:11:50;98261.50;;;18.70;100.00
49342;BME280;35210;41.606;-87.602;2023-06-14T06:14:18;98254.53;;;18.69;100.00
49342;BME280;35210;41.606;-87.602;2023-06-14T06:16:46;98258.84;;;18.70;100.00
49342;BME280;35210;41.606;-87.602;2023-06-14T06:19:14;98264.59;;;18.67;100.00
49342;BME280;35210;41.606;-87.602;2023-06-14T06:21:42;98258.41;;;18.66;100.00
49342;BME280;35210;41.606;-87.602;2023-06-14T06:24:10;98262.53;;;18.69;100.00
49342;BME280;35210;41.606;-87.602;2023-06-14T06:26:40;98266.47;;;18.73;100.00
49342;BME280;35210;41.606;-87.602;2023-06-14T06:29:08;98269.13;;;18.73;100.00
49342;BME280;35210;41.606;-87.602;2023-06-14T06:31:38;98265.84;;;18.71;100.00
49342;BME280;35210;41.606;-87.602;2023-06-14T06:34:06;98268.72;;;18.69;100.00
49342;BME280;35210;41.606;-87.602;2023-06-14T06:36:35;98273.22;;;18.69;100.00
49342;BME280;35210;41.606;-87.602;2023-06-14T06:39:03;98271.19;;;18.71;100.00
49342;BME280;35210;41.606;-87.602;2023-06-14T06:41:36;98274.88;;;18.70;100.00
49342;BME280;35210;41.606;-87.602;2023-06-14T06:44:07;98272.41;;;18.68;100.00
49342;BME280;35210;41.606;-87.602;2023-06-14T06:46:37;98267.25;;;18.67;100.00
49342;BME280;35210;41.606;-87.602;2023-06-14T06:49:07;98267.88;;;18.69;100.00
49342;BME280;35210;41.606;-87.602;2023-06-14T06:51:35;98268.31;;;18.73;100.00
49342;BME280;35210;41.606;-87.602;2023-06-14T06:54:04;98261.50;;;18.70;100.00
49342;BME280;35210;41.606;-87.602;2023-06-14T06:56:33;98262.09;;;18.65;100.00
49342;BME280;35210;41.606;-87.602;2023-06-14T06:59:01;98257.19;;;18.69;100.00
49342;BME280;35210;41.606;-87.602;2023-06-14T07:01:31;98256.56;;;18.67;100.00
49342;BME280;35210;41.606;-87.602;2023-06-14T07:03:59;98264.59;;;18.67;100.00
49342;BME280;35210;41.606;-87.602;2023-06-14T07:06:29;98262.09;;;18.65;100.00
49342;BME280;35210;41.606;-87.602;2023-06-14T07:08:57;98263.75;;;18.66;100.00
49342;BME280;35210;41.606;-87.602;2023-06-14T07:11:27;98268.72;;;18.69;100.00
49342;BME280;35210;41.606;-87.602;2023-06-14T07:13:55;98262.59;;;18.82;100.00
49342;BME280;35210;41.606;-87.602;2023-06-14T07:16:23;98258.09;;;18.83;100.00
49342;BME280;35210;41.606;-87.602;2023-06-14T07:18:53;98264.22;;;18.77;100.00
49342;BME280;35210;41.606;-87.602;2023-06-14T07:21:21;98263.41;;;18.76;100.00
49342;BME280;35210;41.606;-87.602;2023-06-14T07:23:49;98267.25;;;18.67;100.00
49342;BME280;35210;41.606;-87.602;2023-06-14T07:26:17;98266.63;;;18.65;100.00
49342;BME280;35210;41.606;-87.602;2023-06-14T07:28:46;98259.25;;;18.67;100.00
49342;BME280;35210;41.606;-87.602;2023-06-14T07:31:15;98260.03;;;18.61;100.00
49342;BME280;35210;41.606;-87.602;2023-06-14T07:33:44;98256.69;;;18.59;100.00
49342;BME280;35210;41.606;-87.602;2023-06-14T07:36:14;98256.28;;;18.55;100.00
49342;BME280;35210;41.606;-87.602;2023-06-14T07:38:43;98259.78;;;18.56;100.00
49342;BME280;35210;41.606;-87.602;2023-06-14T07:41:11;98266.16;;;18.55;100.00
49342;BME280;35210;41.606;-87.602;2023-06-14T07:43:40;98262.47;;;18.56;100.00
49342;BME280;35210;41.606;-87.602;2023-06-14T07:46:08;98252.16;;;18.53;100.00
49342;BME280;35210;41.606;-87.602;2023-06-14T07:48:36;98256.25;;;18.49;100.00
49342;BME280;35210;41.606;-87.602;2023-06-14T07:51:04;98248.03;;;18.50;100.00
49342;BME280;35210;41.606;-87.602;2023-06-14T07:53:34;98243.13;;;18.54;100.00
49342;BME280;35210;41.606;-87.602;2023-06-14T07:56:03;98252.56;;;18.50;100.00
49342;BME280;35210;41.606;-87.602;2023-06-14T07:58:32;98256.28;;;18.55;100.00
49342;BME280;35210;41.606;-87.602;2023-06-14T08:01:00;98254.66;;;18.54;99.85
49342;BME280;35210;41.606;-87.602;2023-06-14T08:03:32;98253.19;;;18.52;100.00
49342;BME280;35210;41.606;-87.602;2023-06-14T08:06:00;98254.22;;;18.51;100.00
49342;BME280;35210;41.606;-87.602;2023-06-14T08:08:29;98263.66;;;18.47;100.00
49342;BME280;35210;41.606;-87.602;2023-06-14T08:10:58;98258.25;;;18.40;100.00
49342;BME280;35210;41.606;-87.602;2023-06-14T08:13:26;98254.56;;;18.41;100.00
49342;BME280;35210;41.606;-87.602;2023-06-14T08:15:55;98261.38;;;18.44;100.00
49342;BME280;35210;41.606;-87.602;2023-06-14T08:18:24;98264.03;;;18.44;100.00
49342;BME280;35210;41.606;-87.602;2023-06-14T08:20:52;98261.16;;;18.45;100.00
49342;BME280;35210;41.606;-87.602;2023-06-14T08:23:20;98264.44;;;18.41;99.95
49342;BME280;35210;41.606;-87.602;2023-06-14T08:25:49;98265.84;;;18.36;100.00
49342;BME280;35210;41.606;-87.602;2023-06-14T08:28:18;98266.03;;;18.35;100.00
49342;BME280;35210;41.606;-87.602;2023-06-14T08:30:48;98275.91;;;18.34;100.00
49342;BME280;35210;41.606;-87.602;2023-06-14T08:33:16;98274.84;;;18.29;100.00
49342;BME280;35210;41.606;-87.602;2023-06-14T08:35:44;98270.72;;;18.26;100.00
49342;BME280;35210;41.606;-87.602;2023-06-14T08:38:12;98273.63;;;18.31;100.00
49342;BME280;35210;41.606;-87.602;2023-06-14T08:40:41;98269.69;;;18.27;100.00
49342;BME280;35210;41.606;-87.602;2023-06-14T08:43:09;98263.91;;;18.24;100.00
49342;BME280;35210;41.606;-87.602;2023-06-14T08:45:39;98275.41;;;18.24;100.00
49342;BME280;35210;41.606;-87.602;2023-06-14T08:48:08;98265.56;;;18.25;100.00
49342;BME280;35210;41.606;-87.602;2023-06-14T08:50:36;98266.56;;;18.24;100.00
49342;BME280;35210;41.606;-87.602;2023-06-14T08:53:08;98273.38;;;18.26;100.00
49342;BME280;35210;41.606;-87.602;2023-06-14T08:55:39;98272.75;;;18.24;100.00
49342;BME280;35210;41.606;-87.602;2023-06-14T08:58:08;98279.34;;;18.28;99.26
49342;BME280;35210;41.606;-87.602;2023-06-14T09:00:42;98281.16;;;18.21;99.04
49342;BME280;35210;41.606;-87.602;2023-06-14T09:03:10;98287.47;;;18.14;100.00
49342;BME280;35210;41.606;-87.602;2023-06-14T09:05:40;98294.84;;;18.12;100.00
49342;BME280;35210;41.606;-87.602;2023-06-14T09:08:08;98301.84;;;18.13;100.00
49342;BME280;35210;41.606;-87.602;2023-06-14T09:10:37;98302.03;;;18.11;100.00
49342;BME280;35210;41.606;-87.602;2023-06-14T09:13:06;98299.56;;;18.10;100.00
49342;BME280;35210;41.606;-87.602;2023-06-14T09:15:35;98299.56;;;18.10;100.00
49342;BME280;35210;41.606;-87.602;2023-06-14T09:18:05;98304.06;;;18.09;100.00
49342;BME280;35210;41.606;-87.602;2023-06-14T09:20:33;98295.81;;;18.04;100.00
49342;BME280;35210;41.606;-87.602;2023-06-14T09:23:04;98295.44;;;18.07;100.00
49342;BME280;35210;41.606;-87.602;2023-06-14T09:25:39;98290.28;;;18.05;100.00
49342;BME280;35210;41.606;-87.602;2023-06-14T09:28:09;98299.94;;;18.06;100.00
49342;BME280;35210;41.606;-87.602;2023-06-14T09:30:37;98302.16;;;18.03;100.00
49342;BME280;35210;41.606;-87.602;2023-06-14T09:33:07;98297.84;;;18.02;100.00
49342;BME280;35210;41.606;-87.602;2023-06-14T09:35:35;98296.84;;;18.03;100.00
49342;BME280;35210;41.606;-87.602;2023-06-14T09:38:03;98294.97;;;18.03;100.00
49342;BME280;35210;41.606;-87.602;2023-06-14T09:40:34;98293.13;;;18.04;100.00
49342;BME280;35210;41.606;-87.602;2023-06-14T09:43:14;98282.66;;;18.02;100.00
49342;BME280;35210;41.606;-87.602;2023-06-14T09:45:43;98283.47;;;18.03;100.00
49342;BME280;35210;41.606;-87.602;2023-06-14T09:48:15;98285.94;;;18.04;100.00
49342;BME280;35210;41.606;-87.602;2023-06-14T09:50:45;98282.25;;;18.05;100.00
49342;BME280;35210;41.606;-87.602;2023-06-14T09:53:14;98283.91;;;18.06;100.00
49342;BME280;35210;41.606;-87.602;2023-06-14T09:55:43;98288.44;;;18.06;100.00
49342;BME280;35210;41.606;-87.602;2023-06-14T09:58:14;98283.84;;;18.00;100.00
49342;BME280;35210;41.606;-87.602;2023-06-14T10:00:44;98285.91;;;17.98;100.00
49342;BME280;35210;41.606;-87.602;2023-06-14T10:03:23;98298.63;;;17.96;100.00
49342;BME280;35210;41.606;-87.602;2023-06-14T10:05:52;98305.84;;;18.02;100.00
49342;BME280;35210;41.606;-87.602;2023-06-14T10:08:24;98310.94;;;17.97;100.00
49342;BME280;35210;41.606;-87.602;2023-06-14T10:10:55;98306.81;;;17.94;100.00
49342;BME280;35210;41.606;-87.602;2023-06-14T10:13:24;98319.72;;;17.91;100.00
49342;BME280;35210;41.606;-87.602;2023-06-14T10:16:01;98326.09;;;17.90;100.00
49342;BME280;35210;41.606;-87.602;2023-06-14T10:18:43;98326.91;;;17.90;100.00
49342;BME280;35210;41.606;-87.602;2023-06-14T10:21:18;98335.75;;;17.91;100.00
49342;BME280;35210;41.606;-87.602;2023-06-14T10:23:50;98338.44;;;17.91;100.00
49342;BME280;35210;41.606;-87.602;2023-06-14T10:26:23;98340.91;;;17.92;100.00
49342;BME280;35210;41.606;-87.602;2023-06-14T10:29:00;98337.84;;;17.95;100.00
49342;BME280;35210;41.606;-87.602;2023-06-14T10:31:43;98336.00;;;17.96;100.00
49342;BME280;35210;41.606;-87.602;2023-06-14T10:34:21;98337.66;;;17.97;100.00
49342;BME280;35210;41.606;-87.602;2023-06-14T10:37:04;98330.91;;;18.01;100.00
49342;BME280;35210;41.606;-87.602;2023-06-14T10:39:38;98330.47;;;17.97;100.00
49342;BME280;35210;41.606;-87.602;2023-06-14T10:42:06;98339.31;;;17.98;100.00
49342;BME280;35210;41.606;-87.602;2023-06-14T10:44:42;98336.66;;;17.98;100.00
49342;BME280;35210;41.606;-87.602;2023-06-14T10:47:20;98343.00;;;17.97;100.00
49342;BME280;35210;41.606;-87.602;2023-06-14T10:49:52;98350.38;;;17.95;100.00
49342;BME280;35210;41.606;-87.602;2023-06-14T10:52:23;98352.28;;;18.01;100.00
49342;BME280;35210;41.606;-87.602;2023-06-14T10:55:06;98342.25;;;18.03;99.76
49342;BME280;35210;41.606;-87.602;2023-06-14T10:57:36;98343.00;;;17.97;100.00
49342;BME280;35210;41.606;-87.602;2023-06-14T11:00:06;98347.97;;;18.00;100.00
49342;BME280;35210;41.606;-87.602;2023-06-14T11:05:53;98362.09;;;17.94;100.00
49342;BME280;35210;41.606;-87.602;2023-06-14T11:08:40;98360.63;;;17.91;100.00
49342;BME280;35210;41.606;-87.602;2023-06-14T11:11:14;98373.16;;;17.91;100.00
49342;BME280;35210;41.606;-87.602;2023-06-14T11:13:46;98373.16;;;17.91;100.00
49342;BME280;35210;41.606;-87.602;2023-06-14T11:16:15;98377.84;;;17.89;100.00
49342;BME280;35210;41.606;-87.602;2023-06-14T11:18:45;98388.59;;;17.95;99.91
49342;BME280;35210;41.606;-87.602;2023-06-14T11:21:18;98404.81;;;17.94;100.00
49342;BME280;35210;41.606;-87.602;2023-06-14T11:23:50;98403.16;;;17.93;100.00
49342;BME280;35210;41.606;-87.602;2023-06-14T11:26:27;98401.00;;;18.03;100.00
49342;BME280;35210;41.606;-87.602;2023-06-14T11:28:59;98401.31;;;17.93;100.00
49342;BME280;35210;41.606;-87.602;2023-06-14T11:31:28;98412.00;;;17.93;99.93
49342;BME280;35210;41.606;-87.602;2023-06-14T11:33:57;98415.38;;;18.02;99.26
49342;BME280;35210;41.606;-87.602;2023-06-14T11:36:29;98424.03;;;18.04;98.68
49342;BME280;35210;41.606;-87.602;2023-06-14T11:39:00;98418.44;;;17.99;99.27
49342;BME280;35210;41.606;-87.602;2023-06-14T11:41:41;98428.84;;;17.94;99.83
49342;BME280;35210;41.606;-87.602;2023-06-14T11:44:09;98434.19;;;17.94;100.00
49342;BME280;35210;41.606;-87.602;2023-06-14T11:46:38;98432.91;;;17.90;100.00
49342;BME280;35210;41.606;-87.602;2023-06-14T11:49:07;98433.56;;;17.92;100.00
49342;BME280;35210;41.606;-87.602;2023-06-14T11:51:37;98437.13;;;17.99;99.54
49342;BME280;35210;41.606;-87.602;2023-06-14T11:54:06;98440.19;;;17.96;99.14
49342;BME280;35210;41.606;-87.602;2023-06-14T11:56:37;98440.75;;;17.91;99.26
49342;BME280;35210;41.606;-87.602;2023-06-14T11:59:05;98444.69;;;17.95;99.67
49342;BME280;35210;41.606;-87.602;2023-06-14T12:01:38;98450.47;;;17.99;98.85
49342;BME280;35210;41.606;-87.602;2023-06-14T12:04:06;98452.13;;;18.00;98.84
49342;BME280;35210;41.606;-87.602;2023-06-14T12:06:36;98449.84;;;17.97;98.42
49342;BME280;35210;41.606;-87.602;2023-06-14T12:09:06;98456.47;;;18.01;97.61
49342;BME280;35210;41.606;-87.602;2023-06-14T12:11:39;98455.00;;;17.98;97.59
49342;BME280;35210;41.606;-87.602;2023-06-14T12:14:08;98450.03;;;17.95;97.67
49342;BME280;35210;41.606;-87.602;2023-06-14T12:16:38;98457.59;;;17.92;97.94
49342;BME280;35210;41.606;-87.602;2023-06-14T12:19:12;98459.34;;;17.85;98.62
49342;BME280;35210;41.606;-87.602;2023-06-14T12:21:43;98457.69;;;17.84;99.39
49342;BME280;35210;41.606;-87.602;2023-06-14T12:24:13;98455.94;;;17.91;99.57
49342;BME280;35210;41.606;-87.602;2023-06-14T12:26:41;98454.28;;;17.90;99.39
49342;BME280;35210;41.606;-87.602;2023-06-14T12:29:09;98468.66;;;17.89;99.45
49342;BME280;35210;41.606;-87.602;2023-06-14T12:31:38;98468.91;;;17.94;98.93
49342;BME280;35210;41.606;-87.602;2023-06-14T12:34:06;98468.00;;;17.87;98.70
49342;BME280;35210;41.606;-87.602;2023-06-14T12:36:35;98476.94;;;17.94;98.24
49342;BME280;35210;41.606;-87.602;2023-06-14T12:39:09;98482.38;;;17.86;98.25
49342;BME280;35210;41.606;-87.602;2023-06-14T12:41:37;98487.06;;;17.84;98.62
49342;BME280;35210;41.606;-87.602;2023-06-14T12:44:07;98489.50;;;17.79;98.90
49342;BME280;35210;41.606;-87.602;2023-06-14T12:46:36;98493.00;;;17.79;99.09
49342;BME280;35210;41.606;-87.602;2023-06-14T12:49:05;98494.22;;;17.77;99.34